sensor_id;sensor_type;location;lat;lon;timestamp;P1;durP1;ratioP1;P2;durP2;ratioP2
54539;SDS011;40438;52.992;18.604;2022-09-01T00:01:44;4.07;;;2.45;;
54539;SDS011;40438;52.992;18.604;2022-09-01T00:04:13;5.30;;;2.10;;
54539;SDS011;40438;52.992;18.604;2022-09-01T00:06:41;3.10;;;1.90;;
54539;SDS011;40438;52.992;18.604;2022-09-01T00:09:09;3.80;;;1.80;;
54539;SDS011;40438;52.992;18.604;2022-09-01T00:11:40;3.28;;;1.98;;
54539;SDS011;40438;52.992;18.604;2022-09-01T00:14:08;3.25;;;1.90;;
54539;SDS011;40438;52.992;18.604;2022-09-01T00:16:35;2.45;;;1.80;;
54539;SDS011;40438;52.992;18.604;2022-09-01T00:19:02;2.90;;;1.83;;
54539;SDS011;40438;52.992;18.604;2022-09-01T00:21:29;3.22;;;2.05;;
54539;SDS011;40438;52.992;18.604;2022-09-01T00:23:59;2.65;;;2.03;;
54539;SDS011;40438;52.992;18.604;2022-09-01T00:26:26;5.20;;;2.38;;
54539;SDS011;40438;52.992;18.604;2022-09-01T00:28:52;3.53;;;2.10;;
54539;SDS011;40438;52.992;18.604;2022-09-01T00:31:18;4.40;;;2.22;;
54539;SDS011;40438;52.992;18.604;2022-09-01T00:33:45;4.90;;;2.45;;
54539;SDS011;40438;52.992;18.604;2022-09-01T00:36:11;8.82;;;2.38;;
54539;SDS011;40438;52.992;18.604;2022-09-01T00:38:36;4.15;;;2.03;;
54539;SDS011;40438;52.992;18.604;2022-09-01T00:41:04;3.72;;;2.10;;
54539;SDS011;40438;52.992;18.604;2022-09-01T00:43:37;3.28;;;2.13;;
54539;SDS011;40438;52.992;18.604;2022-09-01T00:46:07;3.05;;;2.20;;
54539;SDS011;40438;52.992;18.604;2022-09-01T00:48:35;4.82;;;1.95;;
54539;SDS011;40438;52.992;18.604;2022-09-01T00:51:01;4.55;;;1.95;;
54539;SDS011;40438;52.992;18.604;2022-09-01T00:53:28;2.53;;;1.90;;
54539;SDS011;40438;52.992;18.604;2022-09-01T00:55:54;3.25;;;1.85;;
54539;SDS011;40438;52.992;18.604;2022-09-01T00:58:21;3.80;;;1.88;;
54539;SDS011;40438;52.992;18.604;2022-09-01T01:00:47;3.72;;;2.20;;
54539;SDS011;40438;52.992;18.604;2022-09-01T01:03:16;2.28;;;1.70;;
54539;SDS011;40438;52.992;18.604;2022-09-01T01:05:43;2.90;;;2.17;;
54539;SDS011;40438;52.992;18.604;2022-09-01T01:08:11;3.38;;;1.90;;
54539;SDS011;40438;52.992;18.604;2022-09-01T01:10:38;3.17;;;2.10;;
54539;SDS011;40438;52.992;18.604;2022-09-01T01:13:07;3.92;;;2.17;;
54539;SDS011;40438;52.992;18.604;2022-09-01T01:15:35;6.82;;;2.30;;
54539;SDS011;40438;52.992;18.604;2022-09-01T01:18:01;4.30;;;2.10;;
54539;SDS011;40438;52.992;18.604;2022-09-01T01:20:27;3.78;;;1.95;;
54539;SDS011;40438;52.992;18.604;2022-09-01T01:22:58;6.78;;;2.30;;
54539;SDS011;40438;52.992;18.604;2022-09-01T01:25:28;5.22;;;2.10;;
54539;SDS011;40438;52.992;18.604;2022-09-01T01:28:02;3.50;;;1.90;;
54539;SDS011;40438;52.992;18.604;2022-09-01T01:30:34;4.30;;;1.77;;
54539;SDS011;40438;52.992;18.604;2022-09-01T01:33:00;4.93;;;2.13;;
54539;SDS011;40438;52.992;18.604;2022-09-01T01:35:27;5.28;;;2.15;;
54539;SDS011;40438;52.992;18.604;2022-09-01T01:37:53;3.17;;;2.17;;
54539;SDS011;40438;52.992;18.604;2022-09-01T01:40:20;2.83;;;1.70;;
54539;SDS011;40438;52.992;18.604;2022-09-01T01:42:48;3.00;;;2.03;;
54539;SDS011;40438;52.992;18.604;2022-09-01T01:45:16;3.90;;;2.10;;
54539;SDS011;40438;52.992;18.604;2022-09-01T01:47:44;3.63;;;2.30;;
54539;SDS011;40438;52.992;18.604;2022-09-01T01:50:12;4.22;;;2.17;;
54539;SDS011;40438;52.992;18.604;2022-09-01T01:52:38;3.83;;;1.80;;
54539;SDS011;40438;52.992;18.604;2022-09-01T01:55:04;4.15;;;2.28;;
54539;SDS011;40438;52.992;18.604;2022-09-01T01:57:30;3.40;;;2.20;;
54539;SDS011;40438;52.992;18.604;2022-09-01T01:59:58;3.78;;;2.28;;
54539;SDS011;40438;52.992;18.604;2022-09-01T02:02:24;5.13;;;2.92;;
54539;SDS011;40438;52.992;18.604;2022-09-01T02:04:49;5.35;;;2.38;;
54539;SDS011;40438;52.992;18.604;2022-09-01T02:07:15;4.80;;;2.05;;
54539;SDS011;40438;52.992;18.604;2022-09-01T02:09:41;3.75;;;1.80;;
54539;SDS011;40438;52.992;18.604;2022-09-01T02:12:07;4.47;;;2.50;;
54539;SDS011;40438;52.992;18.604;2022-09-01T02:14:33;5.40;;;2.50;;
54539;SDS011;40438;52.992;18.604;2022-09-01T02:17:01;5.03;;;2.08;;
54539;SDS011;40438;52.992;18.604;2022-09-01T02:19:26;2.88;;;2.30;;
54539;SDS011;40438;52.992;18.604;2022-09-01T02:21:52;6.18;;;2.95;;
54539;SDS011;40438;52.992;18.604;2022-09-01T02:24:18;4.07;;;2.63;;
54539;SDS011;40438;52.992;18.604;2022-09-01T02:26:45;3.20;;;2.50;;
54539;SDS011;40438;52.992;18.604;2022-09-01T02:29:12;5.45;;;2.45;;
54539;SDS011;40438;52.992;18.604;2022-09-01T02:31:40;7.22;;;2.70;;
54539;SDS011;40438;52.992;18.604;2022-09-01T02:34:07;4.03;;;2.63;;
54539;SDS011;40438;52.992;18.604;2022-09-01T02:36:34;5.20;;;2.65;;
54539;SDS011;40438;52.992;18.604;2022-09-01T02:39:01;5.20;;;2.30;;
54539;SDS011;40438;52.992;18.604;2022-09-01T02:41:26;3.75;;;2.78;;
54539;SDS011;40438;52.992;18.604;2022-09-01T02:43:53;6.47;;;2.50;;
54539;SDS011;40438;52.992;18.604;2022-09-01T02:46:19;4.25;;;2.33;;
54539;SDS011;40438;52.992;18.604;2022-09-01T02:48:45;5.30;;;2.35;;
54539;SDS011;40438;52.992;18.604;2022-09-01T02:51:14;4.80;;;2.55;;
54539;SDS011;40438;52.992;18.604;2022-09-01T02:53:42;3.42;;;2.33;;
54539;SDS011;40438;52.992;18.604;2022-09-01T02:56:10;4.60;;;2.05;;
54539;SDS011;40438;52.992;18.604;2022-09-01T02:58:36;3.80;;;2.50;;
54539;SDS011;40438;52.992;18.604;2022-09-01T03:01:02;3.90;;;2.50;;
54539;SDS011;40438;52.992;18.604;2022-09-01T03:03:28;5.35;;;2.50;;
54539;SDS011;40438;52.992;18.604;2022-09-01T03:05:54;3.97;;;2.40;;
54539;SDS011;40438;52.992;18.604;2022-09-01T03:08:21;3.20;;;2.90;;
54539;SDS011;40438;52.992;18.604;2022-09-01T03:10:48;4.72;;;2.45;;
54539;SDS011;40438;52.992;18.604;2022-09-01T03:13:16;4.10;;;2.67;;
54539;SDS011;40438;52.992;18.604;2022-09-01T03:15:44;4.90;;;2.85;;
54539;SDS011;40438;52.992;18.604;2022-09-01T03:18:10;5.28;;;2.20;;
54539;SDS011;40438;52.992;18.604;2022-09-01T03:20:38;3.72;;;2.38;;
54539;SDS011;40438;52.992;18.604;2022-09-01T03:23:07;4.43;;;2.97;;
54539;SDS011;40438;52.992;18.604;2022-09-01T03:25:35;6.60;;;3.00;;
54539;SDS011;40438;52.992;18.604;2022-09-01T03:28:02;5.10;;;2.88;;
54539;SDS011;40438;52.992;18.604;2022-09-01T03:30:31;6.80;;;3.47;;
54539;SDS011;40438;52.992;18.604;2022-09-01T03:33:00;6.38;;;2.97;;
54539;SDS011;40438;52.992;18.604;2022-09-01T03:35:28;5.00;;;3.15;;
54539;SDS011;40438;52.992;18.604;2022-09-01T03:37:54;6.05;;;3.25;;
54539;SDS011;40438;52.992;18.604;2022-09-01T03:40:20;4.70;;;2.78;;
54539;SDS011;40438;52.992;18.604;2022-09-01T03:42:48;3.80;;;2.63;;
54539;SDS011;40438;52.992;18.604;2022-09-01T03:45:13;4.13;;;3.22;;
54539;SDS011;40438;52.992;18.604;2022-09-01T03:47:40;4.47;;;3.45;;
54539;SDS011;40438;52.992;18.604;2022-09-01T03:50:08;5.00;;;3.33;;
54539;SDS011;40438;52.992;18.604;2022-09-01T03:52:36;6.35;;;3.53;;
54539;SDS011;40438;52.992;18.604;2022-09-01T03:55:02;5.30;;;3.20;;
54539;SDS011;40438;52.992;18.604;2022-09-01T03:57:28;8.50;;;3.45;;
54539;SDS011;40438;52.992;18.604;2022-09-01T03:59:55;8.95;;;3.88;;
54539;SDS011;40438;52.992;18.604;2022-09-01T04:02:21;5.07;;;3.08;;
54539;SDS011;40438;52.992;18.604;2022-09-01T04:04:47;6.15;;;3.45;;
54539;SDS011;40438;52.992;18.604;2022-09-01T04:07:13;5.97;;;3.58;;
54539;SDS011;40438;52.992;18.604;2022-09-01T04:09:38;9.52;;;3.65;;
54539;SDS011;40438;52.992;18.604;2022-09-01T04:12:04;5.00;;;3.80;;
54539;SDS011;40438;52.992;18.604;2022-09-01T04:14:31;5.25;;;3.72;;
54539;SDS011;40438;52.992;18.604;2022-09-01T04:16:58;9.73;;;3.78;;
54539;SDS011;40438;52.992;18.604;2022-09-01T04:19:24;7.70;;;3.22;;
54539;SDS011;40438;52.992;18.604;2022-09-01T04:21:52;7.10;;;3.42;;
54539;SDS011;40438;52.992;18.604;2022-09-01T04:24:19;5.53;;;3.63;;
54539;SDS011;40438;52.992;18.604;2022-09-01T04:26:46;7.70;;;3.00;;
54539;SDS011;40438;52.992;18.604;2022-09-01T04:29:12;9.02;;;3.20;;
54539;SDS011;40438;52.992;18.604;2022-09-01T04:31:39;5.40;;;3.03;;
54539;SDS011;40438;52.992;18.604;2022-09-01T04:34:06;4.80;;;3.10;;
54539;SDS011;40438;52.992;18.604;2022-09-01T04:36:32;4.50;;;3.10;;
54539;SDS011;40438;52.992;18.604;2022-09-01T04:38:59;3.58;;;2.78;;
54539;SDS011;40438;52.992;18.604;2022-09-01T04:41:27;5.28;;;3.05;;
54539;SDS011;40438;52.992;18.604;2022-09-01T04:43:55;5.72;;;3.58;;
54539;SDS011;40438;52.992;18.604;2022-09-01T04:46:22;4.30;;;3.20;;
54539;SDS011;40438;52.992;18.604;2022-09-01T04:48:50;5.28;;;3.20;;
54539;SDS011;40438;52.992;18.604;2022-09-01T04:51:18;5.85;;;3.35;;
54539;SDS011;40438;52.992;18.604;2022-09-01T04:53:49;7.28;;;3.47;;
54539;SDS011;40438;52.992;18.604;2022-09-01T04:56:16;6.80;;;3.00;;
54539;SDS011;40438;52.992;18.604;2022-09-01T04:58:48;5.25;;;3.15;;
54539;SDS011;40438;52.992;18.604;2022-09-01T05:01:15;4.43;;;3.00;;
54539;SDS011;40438;52.992;18.604;2022-09-01T05:03:43;8.30;;;3.00;;
54539;SDS011;40438;52.992;18.604;2022-09-01T05:06:34;7.75;;;3.17;;
54539;SDS011;40438;52.992;18.604;2022-09-01T05:09:00;8.00;;;3.67;;
54539;SDS011;40438;52.992;18.604;2022-09-01T05:11:42;5.93;;;3.53;;
54539;SDS011;40438;52.992;18.604;2022-09-01T05:14:16;4.85;;;3.67;;
54539;SDS011;40438;52.992;18.604;2022-09-01T05:16:43;5.68;;;3.72;;
54539;SDS011;40438;52.992;18.604;2022-09-01T05:19:10;10.43;;;4.35;;
54539;SDS011;40438;52.992;18.604;2022-09-01T05:21:37;5.38;;;3.80;;
54539;SDS011;40438;52.992;18.604;2022-09-01T05:24:03;6.82;;;3.90;;
54539;SDS011;40438;52.992;18.604;2022-09-01T05:26:31;4.93;;;3.78;;
54539;SDS011;40438;52.992;18.604;2022-09-01T05:28:58;6.35;;;2.92;;
54539;SDS011;40438;52.992;18.604;2022-09-01T05:31:27;4.50;;;3.17;;
54539;SDS011;40438;52.992;18.604;2022-09-01T05:33:54;5.88;;;2.88;;
54539;SDS011;40438;52.992;18.604;2022-09-01T05:36:21;5.07;;;3.15;;
54539;SDS011;40438;52.992;18.604;2022-09-01T05:38:50;5.75;;;3.60;;
54539;SDS011;40438;52.992;18.604;2022-09-01T05:41:18;5.45;;;3.50;;
54539;SDS011;40438;52.992;18.604;2022-09-01T05:43:45;6.03;;;3.33;;
54539;SDS011;40438;52.992;18.604;2022-09-01T05:46:14;6.88;;;3.42;;
54539;SDS011;40438;52.992;18.604;2022-09-01T05:48:40;5.82;;;3.28;;
54539;SDS011;40438;52.992;18.604;2022-09-01T05:51:08;5.40;;;3.35;;
54539;SDS011;40438;52.992;18.604;2022-09-01T05:53:36;5.38;;;3.55;;
54539;SDS011;40438;52.992;18.604;2022-09-01T05:56:04;16.33;;;3.95;;
54539;SDS011;40438;52.992;18.604;2022-09-01T05:58:32;8.10;;;3.40;;
54539;SDS011;40438;52.992;18.604;2022-09-01T06:00:59;7.15;;;3.55;;
54539;SDS011;40438;52.992;18.604;2022-09-01T06:03:25;4.68;;;2.88;;
54539;SDS011;40438;52.992;18.604;2022-09-01T06:05:53;7.75;;;3.90;;
54539;SDS011;40438;52.992;18.604;2022-09-01T06:08:21;6.00;;;3.17;;
54539;SDS011;40438;52.992;18.604;2022-09-01T06:10:48;3.88;;;2.80;;
54539;SDS011;40438;52.992;18.604;2022-09-01T06:13:15;6.47;;;3.17;;
54539;SDS011;40438;52.992;18.604;2022-09-01T06:15:42;8.65;;;3.20;;
54539;SDS011;40438;52.992;18.604;2022-09-01T06:18:09;6.32;;;3.20;;
54539;SDS011;40438;52.992;18.604;2022-09-01T06:20:50;6.18;;;2.70;;
54539;SDS011;40438;52.992;18.604;2022-09-01T06:23:17;4.32;;;2.63;;
54539;SDS011;40438;52.992;18.604;2022-09-01T06:25:44;6.97;;;2.90;;
54539;SDS011;40438;52.992;18.604;2022-09-01T06:28:11;3.25;;;2.42;;
54539;SDS011;40438;52.992;18.604;2022-09-01T06:30:39;5.38;;;2.60;;
54539;SDS011;40438;52.992;18.604;2022-09-01T06:33:07;3.40;;;2.75;;
54539;SDS011;40438;52.992;18.604;2022-09-01T06:35:34;5.78;;;2.40;;
54539;SDS011;40438;52.992;18.604;2022-09-01T06:38:01;6.97;;;2.53;;
54539;SDS011;40438;52.992;18.604;2022-09-01T06:40:58;5.78;;;2.80;;
54539;SDS011;40438;52.992;18.604;2022-09-01T06:43:24;4.50;;;2.17;;
54539;SDS011;40438;52.992;18.604;2022-09-01T06:45:52;3.78;;;2.03;;
54539;SDS011;40438;52.992;18.604;2022-09-01T06:48:21;3.90;;;2.20;;
54539;SDS011;40438;52.992;18.604;2022-09-01T06:50:48;4.32;;;2.35;;
54539;SDS011;40438;52.992;18.604;2022-09-01T06:53:14;8.10;;;2.38;;
54539;SDS011;40438;52.992;18.604;2022-09-01T06:55:40;3.90;;;2.25;;
54539;SDS011;40438;52.992;18.604;2022-09-01T06:58:07;5.32;;;2.22;;
54539;SDS011;40438;52.992;18.604;2022-09-01T07:00:35;3.58;;;2.17;;
54539;SDS011;40438;52.992;18.604;2022-09-01T07:03:03;2.78;;;1.85;;
54539;SDS011;40438;52.992;18.604;2022-09-01T07:05:44;5.40;;;2.33;;
54539;SDS011;40438;52.992;18.604;2022-09-01T07:08:11;6.15;;;2.13;;
54539;SDS011;40438;52.992;18.604;2022-09-01T07:11:02;2.90;;;2.00;;
54539;SDS011;40438;52.992;18.604;2022-09-01T07:13:28;2.53;;;1.77;;
54539;SDS011;40438;52.992;18.604;2022-09-01T07:15:54;3.42;;;1.77;;
54539;SDS011;40438;52.992;18.604;2022-09-01T07:18:22;4.60;;;2.08;;
54539;SDS011;40438;52.992;18.604;2022-09-01T07:20:49;3.80;;;1.75;;
54539;SDS011;40438;52.992;18.604;2022-09-01T07:23:17;2.25;;;1.55;;
54539;SDS011;40438;52.992;18.604;2022-09-01T07:25:44;4.95;;;1.55;;
54539;SDS011;40438;52.992;18.604;2022-09-01T07:28:21;2.80;;;1.65;;
54539;SDS011;40438;52.992;18.604;2022-09-01T07:30:49;4.82;;;1.50;;
54539;SDS011;40438;52.992;18.604;2022-09-01T07:33:19;4.68;;;1.40;;
54539;SDS011;40438;52.992;18.604;2022-09-01T07:35:47;2.15;;;1.13;;
54539;SDS011;40438;52.992;18.604;2022-09-01T07:38:13;4.18;;;1.15;;
54539;SDS011;40438;52.992;18.604;2022-09-01T07:40:39;4.22;;;1.40;;
54539;SDS011;40438;52.992;18.604;2022-09-01T07:43:24;1.70;;;0.93;;
54539;SDS011;40438;52.992;18.604;2022-09-01T07:46:09;1.50;;;1.20;;
54539;SDS011;40438;52.992;18.604;2022-09-01T07:48:37;2.15;;;1.00;;
54539;SDS011;40438;52.992;18.604;2022-09-01T07:51:03;2.83;;;0.93;;
54539;SDS011;40438;52.992;18.604;2022-09-01T07:53:32;1.42;;;0.90;;
54539;SDS011;40438;52.992;18.604;2022-09-01T07:55:59;3.47;;;1.27;;
54539;SDS011;40438;52.992;18.604;2022-09-01T07:58:33;1.98;;;1.05;;
54539;SDS011;40438;52.992;18.604;2022-09-01T08:01:05;2.10;;;1.13;;
54539;SDS011;40438;52.992;18.604;2022-09-01T08:03:32;1.55;;;1.00;;
54539;SDS011;40438;52.992;18.604;2022-09-01T08:06:02;3.83;;;1.00;;
54539;SDS011;40438;52.992;18.604;2022-09-01T08:08:29;1.83;;;1.05;;
54539;SDS011;40438;52.992;18.604;2022-09-01T08:10:56;1.98;;;0.90;;
54539;SDS011;40438;52.992;18.604;2022-09-01T08:13:22;2.33;;;1.10;;
54539;SDS011;40438;52.992;18.604;2022-09-01T08:15:48;3.38;;;1.00;;
54539;SDS011;40438;52.992;18.604;2022-09-01T08:18:15;1.52;;;0.90;;
54539;SDS011;40438;52.992;18.604;2022-09-01T08:20:42;0.93;;;0.80;;
54539;SDS011;40438;52.992;18.604;2022-09-01T08:23:20;3.40;;;0.93;;
54539;SDS011;40438;52.992;18.604;2022-09-01T08:25:46;1.70;;;0.90;;
54539;SDS011;40438;52.992;18.604;2022-09-01T08:28:13;2.03;;;0.77;;
54539;SDS011;40438;52.992;18.604;2022-09-01T08:30:42;1.80;;;1.08;;
54539;SDS011;40438;52.992;18.604;2022-09-01T08:33:09;1.30;;;0.60;;
54539;SDS011;40438;52.992;18.604;2022-09-01T08:35:36;2.65;;;0.52;;
54539;SDS011;40438;52.992;18.604;2022-09-01T08:38:02;1.05;;;0.80;;
54539;SDS011;40438;52.992;18.604;2022-09-01T08:40:29;1.17;;;0.45;;
54539;SDS011;40438;52.992;18.604;2022-09-01T08:42:58;1.83;;;0.70;;
54539;SDS011;40438;52.992;18.604;2022-09-01T08:45:33;1.13;;;0.50;;
54539;SDS011;40438;52.992;18.604;2022-09-01T08:48:07;3.10;;;0.63;;
54539;SDS011;40438;52.992;18.604;2022-09-01T08:50:40;2.10;;;1.23;;
54539;SDS011;40438;52.992;18.604;2022-09-01T08:53:20;1.60;;;0.60;;
54539;SDS011;40438;52.992;18.604;2022-09-01T08:55:54;0.40;;;0.40;;
54539;SDS011;40438;52.992;18.604;2022-09-01T08:58:21;3.33;;;0.63;;
54539;SDS011;40438;52.992;18.604;2022-09-01T09:01:07;1.42;;;0.50;;
54539;SDS011;40438;52.992;18.604;2022-09-01T09:03:41;0.60;;;0.50;;
54539;SDS011;40438;52.992;18.604;2022-09-01T09:06:21;0.50;;;0.50;;
54539;SDS011;40438;52.992;18.604;2022-09-01T09:08:53;1.92;;;0.60;;
54539;SDS011;40438;52.992;18.604;2022-09-01T09:14:28;1.45;;;0.38;;
54539;SDS011;40438;52.992;18.604;2022-09-01T09:17:01;0.30;;;0.30;;
54539;SDS011;40438;52.992;18.604;2022-09-01T09:19:29;0.35;;;0.20;;
54539;SDS011;40438;52.992;18.604;2022-09-01T09:22:00;0.93;;;0.50;;
54539;SDS011;40438;52.992;18.604;2022-09-01T09:24:29;2.58;;;0.47;;
54539;SDS011;40438;52.992;18.604;2022-09-01T09:26:58;0.30;;;0.30;;
54539;SDS011;40438;52.992;18.604;2022-09-01T09:29:24;0.98;;;0.40;;
54539;SDS011;40438;52.992;18.604;2022-09-01T09:32:00;0.45;;;0.40;;
54539;SDS011;40438;52.992;18.604;2022-09-01T09:34:29;0.47;;;0.22;;
54539;SDS011;40438;52.992;18.604;2022-09-01T09:36:59;2.15;;;0.20;;
54539;SDS011;40438;52.992;18.604;2022-09-01T09:39:25;0.63;;;0.30;;
54539;SDS011;40438;52.992;18.604;2022-09-01T09:42:02;0.43;;;0.35;;
54539;SDS011;40438;52.992;18.604;2022-09-01T09:44:31;2.85;;;0.60;;
54539;SDS011;40438;52.992;18.604;2022-09-01T09:46:58;1.90;;;0.50;;
54539;SDS011;40438;52.992;18.604;2022-09-01T09:49:25;2.55;;;0.50;;
54539;SDS011;40438;52.992;18.604;2022-09-01T09:51:52;2.85;;;0.40;;
54539;SDS011;40438;52.992;18.604;2022-09-01T09:54:21;1.65;;;0.50;;
54539;SDS011;40438;52.992;18.604;2022-09-01T09:56:48;0.30;;;0.25;;
54539;SDS011;40438;52.992;18.604;2022-09-01T09:59:30;1.75;;;0.40;;
54539;SDS011;40438;52.992;18.604;2022-09-01T10:02:06;1.40;;;0.40;;
54539;SDS011;40438;52.992;18.604;2022-09-01T10:04:40;4.65;;;0.80;;
54539;SDS011;40438;52.992;18.604;2022-09-01T10:07:21;3.97;;;1.00;;
54539;SDS011;40438;52.992;18.604;2022-09-01T10:09:50;1.00;;;0.50;;
54539;SDS011;40438;52.992;18.604;2022-09-01T10:12:18;0.75;;;0.30;;
54539;SDS011;40438;52.992;18.604;2022-09-01T10:14:45;0.30;;;0.30;;
54539;SDS011;40438;52.992;18.604;2022-09-01T10:17:15;0.57;;;0.30;;
54539;SDS011;40438;52.992;18.604;2022-09-01T10:19:46;1.00;;;0.30;;
54539;SDS011;40438;52.992;18.604;2022-09-01T10:22:16;1.08;;;0.20;;
54539;SDS011;40438;52.992;18.604;2022-09-01T10:24:42;0.80;;;0.35;;
54539;SDS011;40438;52.992;18.604;2022-09-01T10:27:10;2.38;;;0.28;;
54539;SDS011;40438;52.992;18.604;2022-09-01T10:29:43;0.80;;;0.30;;
54539;SDS011;40438;52.992;18.604;2022-09-01T10:32:16;1.73;;;0.25;;
54539;SDS011;40438;52.992;18.604;2022-09-01T10:34:44;0.88;;;0.52;;
54539;SDS011;40438;52.992;18.604;2022-09-01T10:37:11;0.90;;;0.43;;
54539;SDS011;40438;52.992;18.604;2022-09-01T10:42:39;0.68;;;0.30;;
54539;SDS011;40438;52.992;18.604;2022-09-01T10:45:07;0.50;;;0.40;;
54539;SDS011;40438;52.992;18.604;2022-09-01T10:47:41;0.50;;;0.40;;
54539;SDS011;40438;52.992;18.604;2022-09-01T10:50:22;0.70;;;0.40;;
54539;SDS011;40438;52.992;18.604;2022-09-01T10:52:57;0.50;;;0.50;;
54539;SDS011;40438;52.992;18.604;2022-09-01T10:55:28;1.85;;;1.23;;
54539;SDS011;40438;52.992;18.604;2022-09-01T10:58:06;0.57;;;0.57;;
54539;SDS011;40438;52.992;18.604;2022-09-01T11:00:47;0.82;;;0.63;;
54539;SDS011;40438;52.992;18.604;2022-09-01T11:06:04;1.75;;;0.70;;
54539;SDS011;40438;52.992;18.604;2022-09-01T11:08:41;0.60;;;0.50;;
54539;SDS011;40438;52.992;18.604;2022-09-01T11:11:12;1.70;;;0.85;;
54539;SDS011;40438;52.992;18.604;2022-09-01T11:13:51;1.90;;;0.57;;
54539;SDS011;40438;52.992;18.604;2022-09-01T11:16:27;1.95;;;0.55;;
54539;SDS011;40438;52.992;18.604;2022-09-01T11:18:55;1.40;;;0.40;;
54539;SDS011;40438;52.992;18.604;2022-09-01T11:22:15;1.40;;;0.40;;
54539;SDS011;40438;52.992;18.604;2022-09-01T11:24:52;0.70;;;0.43;;
54539;SDS011;40438;52.992;18.604;2022-09-01T11:30:31;1.75;;;0.40;;
54539;SDS011;40438;52.992;18.604;2022-09-01T11:33:14;4.32;;;0.40;;
54539;SDS011;40438;52.992;18.604;2022-09-01T11:35:58;0.43;;;0.43;;
54539;SDS011;40438;52.992;18.604;2022-09-01T11:38:26;0.47;;;0.40;;
54539;SDS011;40438;52.992;18.604;2022-09-01T11:40:54;0.93;;;0.50;;
54539;SDS011;40438;52.992;18.604;2022-09-01T11:43:20;1.67;;;0.60;;
54539;SDS011;40438;52.992;18.604;2022-09-01T11:45:50;1.85;;;0.60;;
54539;SDS011;40438;52.992;18.604;2022-09-01T11:48:27;0.30;;;0.30;;
54539;SDS011;40438;52.992;18.604;2022-09-01T11:50:55;1.30;;;0.50;;
54539;SDS011;40438;52.992;18.604;2022-09-01T11:53:23;3.22;;;1.17;;
54539;SDS011;40438;52.992;18.604;2022-09-01T11:55:51;3.33;;;0.90;;
54539;SDS011;40438;52.992;18.604;2022-09-01T11:58:27;1.88;;;0.60;;
54539;SDS011;40438;52.992;18.604;2022-09-01T12:00:55;1.58;;;0.40;;
54539;SDS011;40438;52.992;18.604;2022-09-01T12:03:24;1.48;;;0.60;;
54539;SDS011;40438;52.992;18.604;2022-09-01T12:05:53;1.90;;;0.77;;
54539;SDS011;40438;52.992;18.604;2022-09-01T12:08:20;3.95;;;0.90;;
54539;SDS011;40438;52.992;18.604;2022-09-01T12:10:46;2.42;;;0.85;;
54539;SDS011;40438;52.992;18.604;2022-09-01T12:13:16;3.03;;;1.45;;
54539;SDS011;40438;52.992;18.604;2022-09-01T12:15:50;2.33;;;0.93;;
54539;SDS011;40438;52.992;18.604;2022-09-01T12:18:18;2.83;;;1.20;;
54539;SDS011;40438;52.992;18.604;2022-09-01T12:20:46;2.80;;;1.33;;
54539;SDS011;40438;52.992;18.604;2022-09-01T12:23:18;2.65;;;1.35;;
54539;SDS011;40438;52.992;18.604;2022-09-01T12:25:49;3.47;;;1.55;;
54539;SDS011;40438;52.992;18.604;2022-09-01T12:28:15;2.85;;;0.70;;
54539;SDS011;40438;52.992;18.604;2022-09-01T12:30:41;3.45;;;1.05;;
54539;SDS011;40438;52.992;18.604;2022-09-01T12:33:08;3.97;;;1.00;;
54539;SDS011;40438;52.992;18.604;2022-09-01T12:35:36;3.00;;;1.20;;
54539;SDS011;40438;52.992;18.604;2022-09-01T12:38:22;4.28;;;1.15;;
54539;SDS011;40438;52.992;18.604;2022-09-01T12:40:54;5.05;;;1.20;;
54539;SDS011;40438;52.992;18.604;2022-09-01T12:43:31;4.00;;;1.38;;
54539;SDS011;40438;52.992;18.604;2022-09-01T12:45:59;5.00;;;1.30;;
54539;SDS011;40438;52.992;18.604;2022-09-01T12:48:25;2.88;;;1.20;;
54539;SDS011;40438;52.992;18.604;2022-09-01T12:50:52;4.93;;;1.73;;
54539;SDS011;40438;52.992;18.604;2022-09-01T12:53:21;4.93;;;2.50;;
54539;SDS011;40438;52.992;18.604;2022-09-01T12:58:46;2.45;;;1.15;;
54539;SDS011;40438;52.992;18.604;2022-09-01T13:01:22;6.35;;;1.65;;
54539;SDS011;40438;52.992;18.604;2022-09-01T13:04:08;2.80;;;1.23;;
54539;SDS011;40438;52.992;18.604;2022-09-01T13:06:39;3.70;;;1.10;;
54539;SDS011;40438;52.992;18.604;2022-09-01T13:09:07;3.20;;;1.20;;
54539;SDS011;40438;52.992;18.604;2022-09-01T13:11:32;3.13;;;1.33;;
54539;SDS011;40438;52.992;18.604;2022-09-01T13:13:58;4.25;;;1.13;;
54539;SDS011;40438;52.992;18.604;2022-09-01T13:16:24;2.25;;;1.23;;
54539;SDS011;40438;52.992;18.604;2022-09-01T13:18:50;2.97;;;1.27;;
54539;SDS011;40438;52.992;18.604;2022-09-01T13:21:15;7.18;;;1.77;;
54539;SDS011;40438;52.992;18.604;2022-09-01T13:23:41;3.13;;;1.10;;
54539;SDS011;40438;52.992;18.604;2022-09-01T13:26:08;1.40;;;0.70;;
54539;SDS011;40438;52.992;18.604;2022-09-01T13:28:34;1.83;;;0.90;;
54539;SDS011;40438;52.992;18.604;2022-09-01T13:31:01;1.00;;;0.70;;
54539;SDS011;40438;52.992;18.604;2022-09-01T13:33:28;3.15;;;0.80;;
54539;SDS011;40438;52.992;18.604;2022-09-01T13:35:55;0.80;;;0.80;;
54539;SDS011;40438;52.992;18.604;2022-09-01T13:38:20;0.95;;;0.60;;
54539;SDS011;40438;52.992;18.604;2022-09-01T13:40:47;1.70;;;0.52;;
54539;SDS011;40438;52.992;18.604;2022-09-01T13:43:17;0.63;;;0.52;;
54539;SDS011;40438;52.992;18.604;2022-09-01T13:45:45;0.60;;;0.30;;
54539;SDS011;40438;52.992;18.604;2022-09-01T13:48:11;0.52;;;0.40;;
54539;SDS011;40438;52.992;18.604;2022-09-01T13:50:38;0.40;;;0.35;;
54539;SDS011;40438;52.992;18.604;2022-09-01T13:53:03;0.40;;;0.32;;
54539;SDS011;40438;52.992;18.604;2022-09-01T13:55:30;0.77;;;0.47;;
54539;SDS011;40438;52.992;18.604;2022-09-01T13:57:58;1.08;;;0.60;;
54539;SDS011;40438;52.992;18.604;2022-09-01T14:00:26;1.98;;;0.80;;
54539;SDS011;40438;52.992;18.604;2022-09-01T14:02:55;5.32;;;0.70;;
54539;SDS011;40438;52.992;18.604;2022-09-01T14:05:26;1.10;;;0.60;;
54539;SDS011;40438;52.992;18.604;2022-09-01T14:07:53;2.75;;;0.60;;
54539;SDS011;40438;52.992;18.604;2022-09-01T14:10:20;0.60;;;0.30;;
54539;SDS011;40438;52.992;18.604;2022-09-01T14:12:47;0.60;;;0.40;;
54539;SDS011;40438;52.992;18.604;2022-09-01T14:15:13;1.35;;;0.52;;
54539;SDS011;40438;52.992;18.604;2022-09-01T14:17:42;0.88;;;0.60;;
54539;SDS011;40438;52.992;18.604;2022-09-01T14:20:09;1.05;;;0.50;;
54539;SDS011;40438;52.992;18.604;2022-09-01T14:22:37;1.08;;;0.50;;
54539;SDS011;40438;52.992;18.604;2022-09-01T14:25:03;1.58;;;0.57;;
54539;SDS011;40438;52.992;18.604;2022-09-01T14:27:29;1.20;;;0.63;;
54539;SDS011;40438;52.992;18.604;2022-09-01T14:29:55;1.00;;;0.52;;
54539;SDS011;40438;52.992;18.604;2022-09-01T14:32:21;0.98;;;0.85;;
54539;SDS011;40438;52.992;18.604;2022-09-01T14:34:48;0.90;;;0.80;;
54539;SDS011;40438;52.992;18.604;2022-09-01T14:37:14;2.05;;;0.77;;
54539;SDS011;40438;52.992;18.604;2022-09-01T14:39:40;1.00;;;0.60;;
54539;SDS011;40438;52.992;18.604;2022-09-01T14:42:06;5.65;;;0.73;;
54539;SDS011;40438;52.992;18.604;2022-09-01T14:44:34;1.55;;;0.38;;
54539;SDS011;40438;52.992;18.604;2022-09-01T14:47:00;3.35;;;0.50;;
54539;SDS011;40438;52.992;18.604;2022-09-01T14:49:26;0.32;;;0.30;;
54539;SDS011;40438;52.992;18.604;2022-09-01T14:51:53;0.77;;;0.40;;
54539;SDS011;40438;52.992;18.604;2022-09-01T14:54:18;1.27;;;0.47;;
54539;SDS011;40438;52.992;18.604;2022-09-01T14:56:44;0.57;;;0.50;;
54539;SDS011;40438;52.992;18.604;2022-09-01T14:59:10;0.88;;;0.50;;